Time;durP1;ratioP1;P1;durP2;ratioP2;P2;SDS_P1;SDS_P2;PMS_P1;PMS_P2;Temp;Humidity;BMP_temperature;BMP_pressure;BME280_temperature;BME280_humidity;BME280_pressure;Samples;Min_cycle;Max_cycle;Signal;HPM_P1;HPM_P2
2021/12/09 00:00:19;;;;;;;13.20;9.07;;;2.90;83.20;;;-151.14;100.00;62537.16;4056615;34;20260;-85
2021/12/09 00:02:46;;;;;;;11.93;8.35;;;3.00;83.40;;;-151.14;100.00;62537.16;4057086;34;19989;-86
2021/12/09 00:05:15;;;;;;;12.88;8.40;;;2.90;83.30;;;-151.14;100.00;62537.16;4055834;34;20308;-84
2021/12/09 00:07:43;;;;;;;12.55;8.95;;;2.90;83.30;;;-151.14;100.00;62537.16;4034545;34;20387;-85
2021/12/09 00:10:11;;;;;;;11.75;8.43;;;3.00;83.30;;;-151.14;100.00;62537.16;4077912;34;20182;-85
2021/12/09 00:12:38;;;;;;;10.68;7.82;;;2.90;83.40;;;-151.14;100.00;62537.16;4077744;34;20252;-85
2021/12/09 00:15:05;;;;;;;11.00;8.10;;;2.90;83.30;;;-151.14;100.00;62537.16;4054787;34;20139;-84
2021/12/09 00:17:32;;;;;;;12.40;8.43;;;3.00;83.40;;;-151.14;100.00;62537.16;4055717;34;20000;-85
2021/12/09 00:19:58;;;;;;;10.50;7.55;;;2.90;83.20;;;-151.14;100.00;62537.16;4056255;34;20280;-85
2021/12/09 00:22:25;;;;;;;12.15;7.70;;;3.00;83.40;;;-151.14;100.00;62537.16;4056309;34;19985;-86
2021/12/09 00:24:52;;;;;;;11.65;8.05;;;3.00;83.30;;;-151.14;100.00;62537.16;4077308;34;20234;-85
2021/12/09 00:27:18;;;;;;;11.80;8.20;;;2.90;83.30;;;-151.14;100.00;62537.16;4055429;34;20212;-85
2021/12/09 00:29:45;;;;;;;11.00;7.53;;;2.90;83.40;;;-151.14;100.00;62537.16;4077409;34;19989;-84
2021/12/09 00:32:11;;;;;;;11.18;7.65;;;2.90;83.50;;;-151.14;100.00;62537.16;4055926;34;20241;-85
2021/12/09 00:34:41;;;;;;;10.32;7.53;;;3.00;83.40;;;-151.14;100.00;62537.16;4072937;34;20223;-84
2021/12/09 00:40:06;;;;;;;12.10;7.97;;;3.00;83.50;;;-151.14;100.00;62537.16;4051192;34;20260;-85
2021/12/09 00:42:32;;;;;;;11.30;8.25;;;2.90;83.50;;;-151.14;100.00;62537.16;4051555;34;20089;-85
2021/12/09 00:44:59;;;;;;;11.23;7.53;;;2.90;83.40;;;-151.14;100.00;62537.16;4071689;34;20276;-84
2021/12/09 00:47:26;;;;;;;10.18;7.38;;;2.90;83.40;;;-151.14;100.00;62537.16;4029075;34;20259;-85
2021/12/09 00:49:56;;;;;;;11.80;7.85;;;2.90;83.50;;;-151.14;100.00;62537.16;4034095;34;20036;-85
2021/12/09 00:52:24;;;;;;;11.73;8.65;;;3.00;83.50;;;-151.14;100.00;62537.16;4099664;34;20354;-85
2021/12/09 00:54:55;;;;;;;10.00;7.10;;;2.90;83.50;;;-151.14;100.00;62537.16;4078317;34;19989;-84
2021/12/09 00:57:23;;;;;;;11.45;7.88;;;2.90;83.50;;;-151.14;100.00;62537.16;4078222;34;20237;-85
2021/12/09 00:59:49;;;;;;;10.85;7.75;;;3.00;83.50;;;-151.14;100.00;62537.16;4076291;34;20086;-84
2021/12/09 01:02:16;;;;;;;10.35;7.40;;;2.90;83.50;;;-151.14;100.00;62537.16;4078200;34;20090;-87
2021/12/09 01:04:43;;;;;;;10.52;7.63;;;2.90;83.50;;;-151.14;100.00;62537.16;4098407;34;20020;-84
2021/12/09 01:07:11;;;;;;;11.30;7.53;;;2.90;83.50;;;-151.14;100.00;62537.16;4012617;34;20017;-86
2021/12/09 01:09:37;;;;;;;11.25;7.55;;;2.90;83.40;;;-151.14;100.00;62537.16;4055565;34;20221;-85
2021/12/09 01:12:05;;;;;;;12.73;8.00;;;2.90;83.60;;;-151.14;100.00;62537.16;4034608;34;20148;-85
2021/12/09 01:14:32;;;;;;;10.55;7.55;;;2.90;83.50;;;-151.14;100.00;62537.16;4012995;34;20215;-84
2021/12/09 01:16:59;;;;;;;10.27;7.78;;;2.90;83.40;;;-151.14;100.00;62537.16;4033448;34;20008;-84
2021/12/09 01:19:25;;;;;;;11.13;7.60;;;2.90;83.40;;;-151.14;100.00;62537.16;4077160;34;20066;-86
2021/12/09 01:21:52;;;;;;;10.35;7.50;;;2.90;83.40;;;-151.14;100.00;62537.16;4077759;34;19981;-84
2021/12/09 01:24:18;;;;;;;11.68;7.47;;;2.90;83.30;;;-151.14;100.00;62537.16;4034338;34;20051;-84
2021/12/09 01:26:46;;;;;;;10.63;7.43;;;2.90;83.40;;;-151.14;100.00;62537.16;4034380;34;19988;-85
2021/12/09 01:29:17;;;;;;;11.38;7.07;;;2.90;83.50;;;-151.14;100.00;62537.16;4041785;29;19998;-85
2021/12/09 01:31:53;;;;;;;11.27;7.75;;;2.90;83.50;;;-151.14;100.00;62537.16;4030340;34;20029;-85
2021/12/09 01:34:21;;;;;;;11.15;7.28;;;2.90;83.60;;;-151.14;100.00;62537.16;4050218;34;20005;-85
2021/12/09 01:36:49;;;;;;;10.57;7.35;;;2.90;83.50;;;-151.14;100.00;62537.16;4054892;34;20577;-84
2021/12/09 01:39:16;;;;;;;9.27;6.80;;;2.90;83.50;;;-151.14;100.00;62537.16;4033602;34;20009;-85
2021/12/09 01:41:42;;;;;;;10.70;7.57;;;3.00;83.40;;;-151.14;100.00;62537.16;4033434;34;19997;-85
2021/12/09 01:44:09;;;;;;;11.18;8.10;;;2.90;83.50;;;-151.14;100.00;62537.16;4032995;34;20101;-84
2021/12/09 01:46:35;;;;;;;9.88;7.05;;;2.90;83.40;;;-151.14;100.00;62537.16;4053949;34;20000;-85
2021/12/09 01:49:02;;;;;;;9.57;7.20;;;2.90;83.60;;;-151.14;100.00;62537.16;4033006;34;20251;-84
2021/12/09 01:51:28;;;;;;;13.20;8.35;;;2.90;83.50;;;-151.14;100.00;62537.16;4033436;34;20230;-85
2021/12/09 01:53:54;;;;;;;9.43;6.40;;;2.90;83.50;;;-151.14;100.00;62537.16;4054647;34;20035;-85
2021/12/09 01:56:25;;;;;;;10.77;7.47;;;2.90;83.50;;;-151.14;100.00;62537.16;4011488;34;20271;-85
2021/12/09 01:58:56;;;;;;;9.07;7.00;;;2.90;83.50;;;-151.14;100.00;62537.16;4033509;34;20223;-85
2021/12/09 02:01:23;;;;;;;11.05;6.90;;;2.90;83.50;;;-151.14;100.00;62537.16;4055887;34;20040;-84
2021/12/09 02:03:50;;;;;;;10.23;7.80;;;2.90;83.50;;;-151.14;100.00;62537.16;4032972;34;20016;-84
2021/12/09 02:06:17;;;;;;;10.07;6.90;;;2.90;83.40;;;-151.14;100.00;62537.16;4011396;34;20364;-85
2021/12/09 02:08:43;;;;;;;9.35;7.10;;;2.90;83.50;;;-151.14;100.00;62537.16;4032716;34;20130;-84
2021/12/09 02:11:10;;;;;;;10.90;7.45;;;2.90;83.50;;;-151.14;100.00;62537.16;4078328;34;19981;-85
2021/12/09 02:13:36;;;;;;;10.60;7.22;;;2.90;83.40;;;-151.14;100.00;62537.16;4056408;34;20207;-85
2021/12/09 02:16:03;;;;;;;10.30;7.53;;;2.90;83.50;;;-151.14;100.00;62537.16;4035177;34;20091;-85
2021/12/09 02:18:30;;;;;;;11.43;7.38;;;2.90;83.30;;;-151.14;100.00;62537.16;4056281;34;20092;-86
2021/12/09 02:21:18;;;;;;;8.45;6.10;;;2.90;83.50;;;-151.14;100.00;62537.16;4056338;34;19989;-85
2021/12/09 02:23:49;;;;;;;9.05;6.82;;;2.90;83.50;;;-151.14;100.00;62537.16;4035571;34;20472;-84
2021/12/09 02:26:20;;;;;;;9.30;6.85;;;2.90;83.40;;;-151.14;100.00;62537.16;4035334;34;20340;-84
2021/12/09 02:28:49;;;;;;;10.80;7.35;;;2.90;83.60;;;-151.14;100.00;62537.16;4014839;34;20173;-84
2021/12/09 02:31:16;;;;;;;11.75;7.85;;;2.90;84.00;;;-151.14;100.00;62537.16;4013912;34;20203;-85
2021/12/09 02:33:42;;;;;;;10.85;7.18;;;2.90;83.50;;;-151.14;100.00;62537.16;4013427;34;20205;-85
2021/12/09 02:36:09;;;;;;;9.95;6.90;;;2.90;83.40;;;-151.14;100.00;62537.16;4077423;34;20072;-85
2021/12/09 02:38:43;;;;;;;10.10;7.28;;;2.90;83.20;;;-151.14;100.00;62537.16;4013518;34;19985;-85
2021/12/09 02:41:19;;;;;;;10.32;7.65;;;2.90;83.30;;;-151.14;100.00;62537.16;4016213;34;20071;-85
2021/12/09 02:43:56;;;;;;;9.13;7.03;;;2.90;83.50;;;-151.14;100.00;62537.16;4078854;34;20016;-84
2021/12/09 02:46:25;;;;;;;8.65;6.53;;;2.90;83.40;;;-151.14;100.00;62537.16;4036005;34;20279;-84
2021/12/09 02:48:51;;;;;;;10.65;7.05;;;2.90;83.40;;;-151.14;100.00;62537.16;4056098;34;20210;-85
2021/12/09 02:51:18;;;;;;;9.38;6.85;;;2.90;83.30;;;-151.14;100.00;62537.16;3992538;34;20211;-85
2021/12/09 02:53:44;;;;;;;10.18;6.57;;;2.90;83.50;;;-151.14;100.00;62537.16;4044533;34;20028;-86
2021/12/09 02:56:12;;;;;;;8.95;6.38;;;2.90;83.30;;;-151.14;100.00;62537.16;4055715;34;20070;-84
2021/12/09 02:58:39;;;;;;;9.60;7.05;;;2.90;83.40;;;-151.14;100.00;62537.16;4034802;34;20059;-85
2021/12/09 03:01:25;;;;;;;9.02;7.07;;;2.90;83.40;;;-151.14;100.00;62537.16;4034749;34;19985;-85
2021/12/09 03:03:54;;;;;;;9.48;6.50;;;2.90;83.40;;;-151.14;100.00;62537.16;4077937;34;20159;-86
2021/12/09 03:06:37;;;;;;;9.00;7.10;;;2.90;83.50;;;-151.14;100.00;62537.16;4012930;34;20028;-83
2021/12/09 03:09:14;;;;;;;10.43;6.95;;;2.90;83.30;;;-151.14;100.00;62537.16;4058399;34;20489;-84
2021/12/09 03:11:42;;;;;;;9.10;6.55;;;2.90;84.20;;;-151.14;100.00;62537.16;4056916;34;20133;-85
2021/12/09 03:14:11;;;;;;;9.82;6.80;;;2.90;83.50;;;-151.14;100.00;62537.16;4056128;34;20232;-85
2021/12/09 03:16:39;;;;;;;8.48;6.18;;;2.90;83.40;;;-151.14;100.00;62537.16;4033964;34;20012;-85
2021/12/09 03:19:07;;;;;;;9.10;6.18;;;2.90;83.30;;;-151.14;100.00;62537.16;4077328;34;20412;-84
2021/12/09 03:21:44;;;;;;;9.25;6.47;;;2.90;83.40;;;-151.14;100.00;62537.16;4012950;34;20319;-84
2021/12/09 03:24:17;;;;;;;9.85;6.40;;;2.90;83.30;;;-151.14;100.00;62537.16;4055940;34;20212;-85
2021/12/09 03:26:56;;;;;;;8.32;6.25;;;2.90;83.40;;;-151.14;100.00;62537.16;4034235;34;20256;-84
2021/12/09 03:29:25;;;;;;;8.02;6.47;;;2.90;83.30;;;-151.14;100.00;62537.16;4099218;34;20203;-85
2021/12/09 03:31:55;;;;;;;10.18;7.40;;;2.90;83.30;;;-151.14;100.00;62537.16;4034770;34;20352;-85
2021/12/09 03:34:23;;;;;;;10.68;7.22;;;2.90;83.30;;;-151.14;100.00;62537.16;4034869;34;19997;-84
2021/12/09 03:36:50;;;;;;;10.70;7.10;;;2.90;83.30;;;-151.14;100.00;62537.16;4036142;34;19993;-84
2021/12/09 03:39:21;;;;;;;9.57;6.88;;;2.90;83.30;;;-151.14;100.00;62537.16;4060065;34;20008;-85
2021/12/09 03:41:51;;;;;;;9.13;6.25;;;2.90;83.50;;;-151.14;100.00;62537.16;4060570;34;19992;-84
2021/12/09 03:44:18;;;;;;;9.38;7.28;;;2.90;83.40;;;-151.14;100.00;62537.16;4060476;34;19993;-85
2021/12/09 03:46:44;;;;;;;8.73;6.05;;;2.90;83.50;;;-151.14;100.00;62537.16;4081560;34;20031;-84
2021/12/09 03:49:11;;;;;;;10.38;6.57;;;2.90;83.30;;;-151.14;100.00;62537.16;4081849;34;19992;-84
2021/12/09 03:51:37;;;;;;;9.43;6.63;;;2.90;83.50;;;-151.14;100.00;62537.16;4059972;34;20307;-85
2021/12/09 03:54:06;;;;;;;11.77;7.20;;;2.90;83.40;;;-151.14;100.00;62537.16;4059445;34;20258;-85
2021/12/09 03:56:33;;;;;;;11.90;7.50;;;2.90;83.40;;;-151.14;100.00;62537.16;4079548;34;20070;-84
2021/12/09 03:58:59;;;;;;;10.68;7.55;;;2.90;83.30;;;-151.14;100.00;62537.16;4076781;34;20312;-84
2021/12/09 04:01:26;;;;;;;12.32;7.20;;;2.90;83.50;;;-151.14;100.00;62537.16;4033751;34;20240;-86
2021/12/09 04:03:53;;;;;;;10.30;6.47;;;2.90;83.30;;;-151.14;100.00;62537.16;4055255;34;20233;-86
2021/12/09 04:06:19;;;;;;;10.18;6.85;;;2.90;83.30;;;-151.14;100.00;62537.16;4033373;34;19997;-85
2021/12/09 04:08:47;;;;;;;9.05;6.78;;;2.90;83.50;;;-151.14;100.00;62537.16;4033875;34;19989;-84
2021/12/09 04:11:15;;;;;;;9.93;7.20;;;2.90;83.40;;;-151.14;100.00;62537.16;4034026;34;19988;-84
2021/12/09 04:13:41;;;;;;;10.05;6.93;;;2.90;83.70;;;-151.14;100.00;62537.16;4055687;34;19996;-84
2021/12/09 04:16:08;;;;;;;10.05;7.25;;;2.90;83.60;;;-151.14;100.00;62537.16;4054863;34;20029;-85
2021/12/09 04:18:36;;;;;;;10.23;7.20;;;2.90;83.50;;;-151.14;100.00;62537.16;4054604;34;19989;-85
2021/12/09 04:21:04;;;;;;;9.38;7.05;;;2.90;83.50;;;-151.14;100.00;62537.16;4055670;34;19996;-83
2021/12/09 04:23:31;;;;;;;8.50;6.07;;;2.90;83.30;;;-151.14;100.00;62537.16;4033896;34;20001;-85
2021/12/09 04:25:58;;;;;;;9.02;6.72;;;2.90;83.40;;;-151.14;100.00;62537.16;4033352;34;20269;-85
2021/12/09 04:28:24;;;;;;;10.18;7.28;;;2.90;83.50;;;-151.14;100.00;62537.16;4054428;34;20527;-84
2021/12/09 04:30:51;;;;;;;10.00;7.35;;;2.90;83.50;;;-151.14;100.00;62537.16;4033584;34;20142;-85
2021/12/09 04:33:17;;;;;;;10.98;6.97;;;2.90;83.60;;;-151.14;100.00;62537.16;4032808;34;19989;-85
2021/12/09 04:35:44;;;;;;;9.85;7.05;;;2.90;83.40;;;-151.14;100.00;62537.16;4055053;34;20261;-84
2021/12/09 04:38:10;;;;;;;11.60;7.75;;;2.90;83.30;;;-151.14;100.00;62537.16;4028455;34;20049;-85
2021/12/09 04:40:37;;;;;;;9.52;7.05;;;2.90;83.20;;;-151.14;100.00;62537.16;4029136;34;20177;-84
2021/12/09 04:43:03;;;;;;;9.45;7.22;;;2.90;83.30;;;-151.14;100.00;62537.16;3996279;34;20509;-84
2021/12/09 04:45:30;;;;;;;9.35;7.32;;;2.80;83.40;;;-151.14;100.00;62537.16;4033455;34;20383;-85
2021/12/09 04:47:57;;;;;;;10.23;7.47;;;2.90;83.50;;;-151.14;100.00;62537.16;4025422;34;20366;-85
2021/12/09 04:50:24;;;;;;;10.02;7.00;;;2.90;83.50;;;-151.14;100.00;62537.16;4007888;34;20387;-85
2021/12/09 04:52:51;;;;;;;9.68;7.43;;;2.80;83.30;;;-151.14;100.00;62537.16;4050700;34;20184;-87
2021/12/09 04:55:17;;;;;;;11.05;7.35;;;2.90;83.60;;;-151.14;100.00;62537.16;4050159;34;20025;-86
2021/12/09 04:57:43;;;;;;;9.15;7.28;;;2.80;83.30;;;-151.14;100.00;62537.16;4049663;34;19989;-84
2021/12/09 05:00:19;;;;;;;10.45;7.07;;;2.80;83.30;;;-151.14;100.00;62537.16;4028519;34;19997;-85
2021/12/09 05:03:03;;;;;;;;;;;2.90;83.20;;;-151.14;100.00;62537.16;4053188;34;20293;-83
2021/12/09 05:05:38;;;;;;;9.55;7.07;;;2.80;83.20;;;-151.14;100.00;62537.16;4064543;34;19982;-84
2021/12/09 05:08:08;;;;;;;10.45;6.82;;;2.90;83.50;;;-151.14;100.00;62537.16;4034962;34;20068;-84
2021/12/09 05:10:53;;;;;;;11.43;7.82;;;2.90;83.50;;;-151.14;100.00;62537.16;4034208;34;20268;-84
2021/12/09 05:13:20;;;;;;;10.98;7.85;;;2.90;83.40;;;-151.14;100.00;62537.16;4074048;34;20311;-85
2021/12/09 05:15:46;;;;;;;11.73;7.88;;;2.90;83.60;;;-151.14;100.00;62537.16;4033223;34;20262;-85
2021/12/09 05:18:14;;;;;;;10.80;7.50;;;2.80;83.40;;;-151.14;100.00;62537.16;4011579;34;19993;-85
2021/12/09 05:20:41;;;;;;;11.05;7.38;;;2.80;83.20;;;-151.14;100.00;62537.16;4012187;34;20561;-85
2021/12/09 05:23:07;;;;;;;10.35;7.53;;;2.80;83.30;;;-151.14;100.00;62537.16;4033409;34;20072;-85
2021/12/09 05:25:34;;;;;;;10.57;7.90;;;2.80;83.30;;;-151.14;100.00;62537.16;4033010;34;20271;-84
2021/12/09 05:28:00;;;;;;;11.25;7.57;;;2.80;83.30;;;-151.14;100.00;62537.16;4054299;34;20193;-85
2021/12/09 05:30:39;;;;;;;10.73;7.82;;;2.80;83.20;;;-151.14;100.00;62537.16;4098180;34;20269;-86
2021/12/09 05:33:06;;;;;;;11.05;7.72;;;2.80;83.40;;;-151.14;100.00;62537.16;4020151;34;20230;-85
2021/12/09 05:35:36;;;;;;;12.27;8.50;;;2.80;83.40;;;-151.14;100.00;62537.16;4033246;34;20533;-85
2021/12/09 05:38:02;;;;;;;10.63;7.50;;;2.80;83.50;;;-151.14;100.00;62537.16;4054056;34;20499;-85
2021/12/09 05:40:28;;;;;;;11.20;8.20;;;2.90;83.50;;;-151.14;100.00;62537.16;4050261;34;20045;-84
2021/12/09 05:42:55;;;;;;;10.30;7.38;;;2.80;83.50;;;-151.14;100.00;62537.16;4049831;34;20400;-85
2021/12/09 05:45:21;;;;;;;10.60;7.45;;;2.80;83.50;;;-151.14;100.00;62537.16;4072941;34;20324;-85
2021/12/09 05:47:47;;;;;;;10.48;7.65;;;2.80;83.30;;;-151.14;100.00;62537.16;4051619;34;20202;-85
2021/12/09 05:50:14;;;;;;;12.70;8.65;;;2.80;83.30;;;-151.14;100.00;62537.16;4035007;34;20020;-84
2021/12/09 05:52:40;;;;;;;11.82;8.27;;;2.90;83.50;;;-151.14;100.00;62537.16;4078405;34;20336;-85
2021/12/09 05:55:08;;;;;;;11.93;7.70;;;2.90;83.30;;;-151.14;100.00;62537.16;4078118;34;20150;-86
2021/12/09 05:57:34;;;;;;;11.73;8.02;;;2.80;83.30;;;-151.14;100.00;62537.16;4034860;34;19999;-86
2021/12/09 06:00:01;;;;;;;10.68;7.53;;;2.80;83.30;;;-151.14;100.00;62537.16;4065703;34;20064;-86
2021/12/09 06:02:27;;;;;;;10.18;7.60;;;2.80;83.40;;;-151.14;100.00;62537.16;4056281;34;20428;-85
2021/12/09 06:04:53;;;;;;;11.07;7.85;;;2.90;83.70;;;-151.14;100.00;62537.16;4056403;34;19992;-85
2021/12/09 06:07:20;;;;;;;12.88;8.50;;;2.90;83.50;;;-151.14;100.00;62537.16;3992521;34;20069;-85
2021/12/09 06:09:46;;;;;;;12.55;8.75;;;2.80;83.30;;;-151.14;100.00;62537.16;4056653;34;20063;-85
2021/12/09 06:12:13;;;;;;;11.23;8.43;;;2.80;83.30;;;-151.14;100.00;62537.16;4035167;34;20089;-84
2021/12/09 06:14:40;;;;;;;11.45;8.05;;;2.80;83.30;;;-151.14;100.00;62537.16;4078077;34;20040;-85
2021/12/09 06:17:07;;;;;;;11.50;8.73;;;2.90;83.70;;;-151.14;100.00;62537.16;4035227;34;20216;-85
2021/12/09 06:19:33;;;;;;;11.63;8.07;;;2.90;83.40;;;-151.14;100.00;62537.16;4047759;34;20064;-86
2021/12/09 06:21:59;;;;;;;13.05;8.73;;;2.80;83.30;;;-151.14;100.00;62537.16;4052206;34;20357;-84
2021/12/09 06:24:26;;;;;;;12.70;8.15;;;2.80;83.20;;;-151.14;100.00;62537.16;4051724;34;20013;-84
2021/12/09 06:26:52;;;;;;;13.13;8.50;;;2.80;83.30;;;-151.14;100.00;62537.16;4051365;34;19994;-84
2021/12/09 06:29:19;;;;;;;12.65;8.93;;;2.90;83.60;;;-151.14;100.00;62537.16;4029940;34;20327;-85
2021/12/09 06:31:45;;;;;;;12.07;8.40;;;2.80;83.30;;;-151.14;100.00;62537.16;4073423;34;19986;-85
2021/12/09 06:34:12;;;;;;;11.98;8.77;;;2.90;83.50;;;-151.14;100.00;62537.16;4051746;34;20020;-86
2021/12/09 06:36:41;;;;;;;12.65;9.18;;;2.80;83.50;;;-151.14;100.00;62537.16;4051806;34;20068;-86
2021/12/09 06:39:07;;;;;;;12.73;8.95;;;2.90;83.50;;;-151.14;100.00;62537.16;4051499;34;19997;-85
2021/12/09 06:41:33;;;;;;;13.32;8.98;;;2.90;83.40;;;-151.14;100.00;62537.16;4030506;34;20413;-85
2021/12/09 06:44:00;;;;;;;13.52;9.60;;;2.80;83.50;;;-151.14;100.00;62537.16;4030171;34;20013;-85
2021/12/09 06:46:27;;;;;;;12.95;9.70;;;2.80;83.40;;;-151.14;100.00;62537.16;4013347;34;20308;-86
2021/12/09 06:48:54;;;;;;;14.85;9.38;;;2.80;83.50;;;-151.14;100.00;62537.16;4034458;34;20028;-85
2021/12/09 06:51:20;;;;;;;13.63;9.07;;;2.80;83.40;;;-151.14;100.00;62537.16;4013760;34;20105;-85
2021/12/09 06:53:47;;;;;;;13.98;9.70;;;2.80;83.50;;;-151.14;100.00;62537.16;4056082;34;20224;-84
2021/12/09 06:56:13;;;;;;;13.48;9.55;;;2.90;83.50;;;-151.14;100.00;62537.16;4039313;34;20371;-85
2021/12/09 06:58:40;;;;;;;13.25;9.48;;;2.80;83.40;;;-151.14;100.00;62537.16;4055808;34;20126;-86
2021/12/09 07:01:07;;;;;;;14.38;9.65;;;2.90;83.40;;;-151.14;100.00;62537.16;4034921;34;20397;-85
2021/12/09 07:03:35;;;;;;;12.35;9.05;;;2.80;83.40;;;-151.14;100.00;62537.16;4034623;34;20016;-85
2021/12/09 07:06:06;;;;;;;14.73;10.00;;;2.90;83.50;;;-151.14;100.00;62537.16;4034607;34;19993;-85
2021/12/09 07:08:41;;;;;;;13.77;9.90;;;2.80;83.50;;;-151.14;100.00;62537.16;4058260;34;19988;-85
2021/12/09 07:11:08;;;;;;;14.13;9.45;;;2.90;83.50;;;-151.14;100.00;62537.16;4057598;34;20141;-85
2021/12/09 07:13:34;;;;;;;12.35;9.40;;;2.90;83.40;;;-151.14;100.00;62537.16;4034170;34;20241;-86
2021/12/09 07:16:01;;;;;;;13.93;9.38;;;2.80;83.50;;;-151.14;100.00;62537.16;4012081;34;20064;-85
2021/12/09 07:18:28;;;;;;;13.68;9.88;;;2.90;83.50;;;-151.14;100.00;62537.16;4033775;34;20545;-85
2021/12/09 07:20:55;;;;;;;14.02;10.15;;;2.90;83.60;;;-151.14;100.00;62537.16;4034632;34;20354;-86
2021/12/09 07:23:21;;;;;;;13.48;9.68;;;2.90;83.40;;;-151.14;100.00;62537.16;4047670;34;19992;-86
2021/12/09 07:25:48;;;;;;;13.35;9.52;;;2.90;83.70;;;-151.14;100.00;62537.16;4055787;34;20043;-83
2021/12/09 07:28:14;;;;;;;14.27;9.15;;;2.90;83.50;;;-151.14;100.00;62537.16;4047770;34;20004;-85
2021/12/09 07:30:41;;;;;;;12.48;8.88;;;2.90;83.50;;;-151.14;100.00;62537.16;4093144;29;19997;-84
2021/12/09 07:33:08;;;;;;;15.45;9.90;;;2.90;83.50;;;-151.14;100.00;62537.16;4030475;34;20013;-84
2021/12/09 07:35:34;;;;;;;14.52;9.77;;;2.90;83.60;;;-151.14;100.00;62537.16;4073036;34;20260;-84
2021/12/09 07:38:02;;;;;;;14.82;9.80;;;2.90;83.50;;;-151.14;100.00;62537.16;4008860;34;20113;-84
2021/12/09 07:40:29;;;;;;;12.57;9.02;;;2.90;83.70;;;-151.14;100.00;62537.16;4025217;34;20064;-84
2021/12/09 07:42:55;;;;;;;13.00;9.50;;;2.90;83.50;;;-151.14;100.00;62537.16;4004546;34;20037;-85
2021/12/09 07:45:22;;;;;;;13.45;9.52;;;2.90;83.50;;;-151.14;100.00;62537.16;4002850;34;20029;-84
2021/12/09 07:47:48;;;;;;;13.55;9.98;;;2.90;83.40;;;-151.14;100.00;62537.16;3999584;35;20006;-84
2021/12/09 07:50:21;;;;;;;12.85;9.57;;;2.90;83.40;;;-151.14;100.00;62537.16;3978982;35;20118;-84
2021/12/09 07:52:51;;;;;;;14.40;9.37;;;2.90;83.30;;;-151.14;100.00;62537.16;3999777;35;20317;-83
2021/12/09 07:55:20;;;;;;;12.32;8.68;;;2.90;83.50;;;-151.14;100.00;62537.16;3999867;35;20127;-84
2021/12/09 07:57:46;;;;;;;13.15;8.90;;;2.90;83.50;;;-151.14;100.00;62537.16;3978523;35;20018;-85
2021/12/09 08:00:22;;;;;;;13.65;9.40;;;2.90;83.30;;;-151.14;100.00;62537.16;3978780;35;20102;-84
2021/12/09 08:02:50;;;;;;;12.35;9.27;;;2.90;83.30;;;-151.14;100.00;62537.16;4000189;35;20381;-84
2021/12/09 08:05:17;;;;;;;13.63;9.00;;;2.90;83.30;;;-151.14;100.00;62537.16;3978504;35;19995;-84
2021/12/09 08:07:44;;;;;;;13.40;8.88;;;2.90;83.20;;;-151.14;100.00;62537.16;4020426;35;20315;-85
2021/12/09 08:10:13;;;;;;;14.48;10.00;;;2.90;83.30;;;-151.14;100.00;62537.16;3978504;35;20038;-86
2021/12/09 08:12:41;;;;;;;13.38;9.65;;;2.90;83.40;;;-151.14;100.00;62537.16;3978683;35;19999;-85
2021/12/09 08:15:09;;;;;;;13.45;9.40;;;2.90;83.20;;;-151.14;100.00;62537.16;3999638;35;19994;-85
2021/12/09 08:20:15;;;;;;;13.15;9.98;;;2.90;83.30;;;-151.14;100.00;62537.16;4000430;35;20562;-84
2021/12/09 08:22:44;;;;;;;11.40;8.68;;;2.90;83.30;;;-151.14;100.00;62537.16;3958825;35;20185;-85
2021/12/09 08:25:13;;;;;;;13.18;9.65;;;2.90;83.20;;;-151.14;100.00;62537.16;3974504;35;20313;-84
2021/12/09 08:27:45;;;;;;;12.80;9.20;;;2.90;83.20;;;-151.14;100.00;62537.16;3999017;35;20170;-84
2021/12/09 08:30:16;;;;;;;13.07;9.25;;;3.00;83.20;;;-151.14;100.00;62537.16;3979594;35;20010;-84
2021/12/09 08:32:43;;;;;;;14.30;9.50;;;3.00;83.10;;;-151.14;100.00;62537.16;3954841;35;20353;-84
2021/12/09 08:35:10;;;;;;;13.63;9.00;;;3.00;83.20;;;-151.14;100.00;62537.16;3994839;35;20018;-84
2021/12/09 08:37:36;;;;;;;14.13;9.65;;;3.00;83.20;;;-151.14;100.00;62537.16;3973335;35;20152;-84
2021/12/09 08:40:06;;;;;;;12.35;9.35;;;3.00;83.20;;;-151.14;100.00;62537.16;3991691;35;20055;-84
2021/12/09 08:42:40;;;;;;;15.25;9.63;;;3.00;83.20;;;-151.14;100.00;62537.16;4009807;35;20149;-85
2021/12/09 08:45:10;;;;;;;12.95;9.40;;;3.00;83.00;;;-151.14;100.00;62537.16;3998918;35;20214;-85
2021/12/09 08:47:41;;;;;;;13.60;9.90;;;3.00;83.00;;;-151.14;100.00;62537.16;3969378;34;20373;-85
2021/12/09 08:50:13;;;;;;;12.80;8.95;;;3.00;83.00;;;-151.14;100.00;62537.16;3997528;34;20013;-84
2021/12/09 08:52:39;;;;;;;13.38;9.60;;;3.00;82.90;;;-151.14;100.00;62537.16;3983133;34;20098;-84
2021/12/09 08:55:06;;;;;;;13.82;9.50;;;3.00;82.90;;;-151.14;100.00;62537.16;4046013;34;20080;-84
2021/12/09 08:57:33;;;;;;;13.88;9.82;;;3.00;82.90;;;-151.14;100.00;62537.16;3961185;35;20036;-84
2021/12/09 09:00:00;;;;;;;13.35;8.95;;;3.00;83.10;;;-151.14;100.00;62537.16;3953305;35;20268;-85
2021/12/09 09:02:26;;;;;;;14.57;10.15;;;3.00;83.10;;;-151.14;100.00;62537.16;3974528;35;20385;-84
2021/12/09 09:04:53;;;;;;;15.13;10.05;;;3.00;83.00;;;-151.14;100.00;62537.16;3973924;35;19996;-85
2021/12/09 09:07:20;;;;;;;15.18;10.32;;;3.00;83.10;;;-151.14;100.00;62537.16;4014922;35;20303;-85
2021/12/09 09:09:47;;;;;;;14.07;9.82;;;3.00;83.00;;;-151.14;100.00;62537.16;3994498;35;20207;-84
2021/12/09 09:12:14;;;;;;;13.05;9.45;;;3.00;82.80;;;-151.14;100.00;62537.16;3955055;35;20278;-85
2021/12/09 09:14:41;;;;;;;13.93;10.43;;;3.00;82.80;;;-151.14;100.00;62537.16;3974534;35;20436;-84
2021/12/09 09:17:08;;;;;;;15.43;9.68;;;3.00;82.80;;;-151.14;100.00;62537.16;3973442;35;20096;-85
2021/12/09 09:19:35;;;;;;;14.15;9.15;;;3.00;82.90;;;-151.14;100.00;62537.16;3974143;35;20278;-83
2021/12/09 09:22:03;;;;;;;14.27;9.73;;;3.00;82.70;;;-151.14;100.00;62537.16;3975974;35;20006;-83
2021/12/09 09:24:30;;;;;;;15.25;10.35;;;3.00;82.70;;;-151.14;100.00;62537.16;3975975;35;20344;-84
2021/12/09 09:26:57;;;;;;;13.00;9.38;;;3.10;82.90;;;-151.14;100.00;62537.16;3996361;35;20030;-85
2021/12/09 09:29:25;;;;;;;13.32;9.35;;;3.10;82.80;;;-151.14;100.00;62537.16;3955154;35;20141;-84
2021/12/09 09:31:52;;;;;;;13.50;9.60;;;3.20;82.70;;;-151.14;100.00;62537.16;3956297;35;19987;-84
2021/12/09 09:34:22;;;;;;;13.23;9.02;;;3.10;82.50;;;-151.14;100.00;62537.16;3975638;35;20292;-84
2021/12/09 09:36:48;;;;;;;13.40;9.35;;;3.10;82.40;;;-151.14;100.00;62537.16;3976047;35;20540;-84
2021/12/09 09:39:21;;;;;;;11.20;8.15;;;3.10;82.30;;;-151.14;100.00;62537.16;3975828;35;20242;-86
2021/12/09 09:44:56;;;;;;;12.00;8.45;;;3.10;82.20;;;-151.14;100.00;62537.16;3920879;35;20302;-85
2021/12/09 09:47:24;;;;;;;14.95;9.80;;;3.10;82.20;;;-151.14;100.00;62537.16;3977062;35;19999;-85
2021/12/09 09:49:51;;;;;;;12.73;9.07;;;3.10;82.20;;;-151.14;100.00;62537.16;3976263;35;20228;-83
2021/12/09 09:52:17;;;;;;;12.52;8.80;;;3.10;82.20;;;-151.14;100.00;62537.16;3975895;35;20023;-84
2021/12/09 09:54:44;;;;;;;12.18;8.48;;;3.10;82.20;;;-151.14;100.00;62537.16;3975697;35;20051;-83
2021/12/09 09:57:11;;;;;;;13.68;9.55;;;3.10;82.30;;;-151.14;100.00;62537.16;3996099;35;20579;-84
2021/12/09 09:59:40;;;;;;;12.95;8.48;;;3.10;82.20;;;-151.14;100.00;62537.16;3975606;35;20127;-85
2021/12/09 10:02:08;;;;;;;12.23;9.05;;;3.10;82.20;;;-151.14;100.00;62537.16;3935791;35;20352;-84
2021/12/09 10:04:57;;;;;;;12.52;8.77;;;3.10;82.30;;;-151.14;100.00;62537.16;3935039;35;20492;-85
2021/12/09 10:07:24;;;;;;;13.27;9.20;;;3.10;82.40;;;-151.14;100.00;62537.16;4017408;35;20012;-84
2021/12/09 10:09:52;;;;;;;13.82;9.30;;;3.10;82.40;;;-151.14;100.00;62537.16;3975611;35;20242;-84
2021/12/09 10:12:18;;;;;;;13.32;9.27;;;3.10;82.40;;;-151.14;100.00;62537.16;3955055;35;20195;-85